sensor_id;sensor_type;location;lat;lon;timestamp;P1;durP1;ratioP1;P2;durP2;ratioP2
82760;SDS011;72498;42.022;21.444;2024-01-07T00:01:00;82.57;;;46.95;;
82760;SDS011;72498;42.022;21.444;2024-01-07T00:03:29;72.03;;;40.58;;
82760;SDS011;72498;42.022;21.444;2024-01-07T00:05:59;79.70;;;45.40;;
82760;SDS011;72498;42.022;21.444;2024-01-07T00:08:45;85.38;;;46.38;;
82760;SDS011;72498;42.022;21.444;2024-01-07T00:11:20;85.18;;;43.75;;
82760;SDS011;72498;42.022;21.444;2024-01-07T00:13:55;87.57;;;46.75;;
82760;SDS011;72498;42.022;21.444;2024-01-07T00:16:22;69.35;;;41.63;;
82760;SDS011;72498;42.022;21.444;2024-01-07T00:18:53;72.88;;;40.75;;
82760;SDS011;72498;42.022;21.444;2024-01-07T00:21:33;68.38;;;40.42;;
82760;SDS011;72498;42.022;21.444;2024-01-07T00:24:03;69.53;;;39.13;;
82760;SDS011;72498;42.022;21.444;2024-01-07T00:26:34;63.60;;;39.72;;
82760;SDS011;72498;42.022;21.444;2024-01-07T00:29:22;68.90;;;42.42;;
82760;SDS011;72498;42.022;21.444;2024-01-07T00:32:14;65.97;;;39.47;;
82760;SDS011;72498;42.022;21.444;2024-01-07T00:34:50;77.15;;;40.30;;
82760;SDS011;72498;42.022;21.444;2024-01-07T00:37:38;70.45;;;41.00;;
82760;SDS011;72498;42.022;21.444;2024-01-07T00:40:05;69.55;;;38.65;;
82760;SDS011;72498;42.022;21.444;2024-01-07T00:42:34;71.65;;;41.33;;
82760;SDS011;72498;42.022;21.444;2024-01-07T00:45:00;70.38;;;39.30;;
82760;SDS011;72498;42.022;21.444;2024-01-07T00:47:28;66.53;;;38.05;;
82760;SDS011;72498;42.022;21.444;2024-01-07T00:50:14;65.07;;;38.05;;
82760;SDS011;72498;42.022;21.444;2024-01-07T00:52:48;67.68;;;38.67;;
82760;SDS011;72498;42.022;21.444;2024-01-07T00:55:26;58.55;;;35.90;;
82760;SDS011;72498;42.022;21.444;2024-01-07T00:58:31;57.35;;;34.30;;
82760;SDS011;72498;42.022;21.444;2024-01-07T01:01:44;55.03;;;32.10;;
82760;SDS011;72498;42.022;21.444;2024-01-07T01:04:14;54.10;;;31.33;;
82760;SDS011;72498;42.022;21.444;2024-01-07T01:06:43;52.08;;;31.27;;
82760;SDS011;72498;42.022;21.444;2024-01-07T01:14:52;45.45;;;26.00;;
82760;SDS011;72498;42.022;21.444;2024-01-07T01:17:19;48.92;;;28.77;;
82760;SDS011;72498;42.022;21.444;2024-01-07T01:19:48;41.28;;;25.70;;
82760;SDS011;72498;42.022;21.444;2024-01-07T01:22:17;43.03;;;27.63;;
82760;SDS011;72498;42.022;21.444;2024-01-07T01:24:44;46.80;;;29.25;;
82760;SDS011;72498;42.022;21.444;2024-01-07T01:27:17;49.95;;;27.92;;
82760;SDS011;72498;42.022;21.444;2024-01-07T01:29:45;58.42;;;34.90;;
82760;SDS011;72498;42.022;21.444;2024-01-07T01:32:20;51.75;;;32.95;;
82760;SDS011;72498;42.022;21.444;2024-01-07T01:34:50;50.33;;;34.17;;
82760;SDS011;72498;42.022;21.444;2024-01-07T01:37:17;39.55;;;28.17;;
82760;SDS011;72498;42.022;21.444;2024-01-07T01:39:51;43.33;;;25.98;;
82760;SDS011;72498;42.022;21.444;2024-01-07T01:42:18;39.58;;;23.58;;
82760;SDS011;72498;42.022;21.444;2024-01-07T01:44:45;42.20;;;24.73;;
82760;SDS011;72498;42.022;21.444;2024-01-07T01:47:12;43.03;;;24.92;;
82760;SDS011;72498;42.022;21.444;2024-01-07T01:49:39;39.80;;;23.73;;
82760;SDS011;72498;42.022;21.444;2024-01-07T01:52:05;42.38;;;24.35;;
82760;SDS011;72498;42.022;21.444;2024-01-07T01:54:31;42.67;;;24.92;;
82760;SDS011;72498;42.022;21.444;2024-01-07T01:56:58;44.00;;;27.55;;
82760;SDS011;72498;42.022;21.444;2024-01-07T01:59:28;48.95;;;30.33;;
82760;SDS011;72498;42.022;21.444;2024-01-07T02:01:54;54.42;;;32.53;;
82760;SDS011;72498;42.022;21.444;2024-01-07T02:04:21;45.58;;;27.13;;
82760;SDS011;72498;42.022;21.444;2024-01-07T02:06:50;43.45;;;26.67;;
82760;SDS011;72498;42.022;21.444;2024-01-07T02:09:28;42.72;;;25.20;;
82760;SDS011;72498;42.022;21.444;2024-01-07T02:12:04;43.88;;;26.77;;
82760;SDS011;72498;42.022;21.444;2024-01-07T02:14:30;47.60;;;28.00;;
82760;SDS011;72498;42.022;21.444;2024-01-07T02:16:58;48.05;;;27.05;;
82760;SDS011;72498;42.022;21.444;2024-01-07T02:19:25;46.35;;;28.52;;
82760;SDS011;72498;42.022;21.444;2024-01-07T02:21:51;53.67;;;28.98;;
82760;SDS011;72498;42.022;21.444;2024-01-07T02:24:19;46.95;;;26.48;;
82760;SDS011;72498;42.022;21.444;2024-01-07T02:26:46;43.63;;;25.05;;
82760;SDS011;72498;42.022;21.444;2024-01-07T02:29:16;42.10;;;24.58;;
82760;SDS011;72498;42.022;21.444;2024-01-07T02:32:02;39.80;;;25.45;;
82760;SDS011;72498;42.022;21.444;2024-01-07T02:34:32;45.53;;;24.48;;
82760;SDS011;72498;42.022;21.444;2024-01-07T02:36:58;42.92;;;26.15;;
82760;SDS011;72498;42.022;21.444;2024-01-07T02:39:24;44.30;;;28.27;;
82760;SDS011;72498;42.022;21.444;2024-01-07T02:41:53;46.22;;;26.13;;
82760;SDS011;72498;42.022;21.444;2024-01-07T02:44:22;44.50;;;27.77;;
82760;SDS011;72498;42.022;21.444;2024-01-07T02:47:10;49.90;;;26.75;;
82760;SDS011;72498;42.022;21.444;2024-01-07T02:49:36;43.67;;;25.85;;
82760;SDS011;72498;42.022;21.444;2024-01-07T02:52:02;41.75;;;24.73;;
82760;SDS011;72498;42.022;21.444;2024-01-07T02:54:28;44.92;;;26.50;;
82760;SDS011;72498;42.022;21.444;2024-01-07T02:56:54;53.58;;;30.77;;
82760;SDS011;72498;42.022;21.444;2024-01-07T02:59:24;43.63;;;28.38;;
82760;SDS011;72498;42.022;21.444;2024-01-07T03:01:50;50.05;;;27.00;;
82760;SDS011;72498;42.022;21.444;2024-01-07T03:04:16;42.50;;;27.33;;
82760;SDS011;72498;42.022;21.444;2024-01-07T03:06:43;51.22;;;28.15;;
82760;SDS011;72498;42.022;21.444;2024-01-07T03:09:09;53.15;;;29.83;;
82760;SDS011;72498;42.022;21.444;2024-01-07T03:11:43;38.70;;;25.95;;
82760;SDS011;72498;42.022;21.444;2024-01-07T03:14:10;30.20;;;20.05;;
82760;SDS011;72498;42.022;21.444;2024-01-07T03:16:36;34.92;;;18.17;;
82760;SDS011;72498;42.022;21.444;2024-01-07T03:19:02;27.00;;;16.65;;
82760;SDS011;72498;42.022;21.444;2024-01-07T03:21:29;26.23;;;15.27;;
82760;SDS011;72498;42.022;21.444;2024-01-07T03:23:55;25.02;;;15.60;;
82760;SDS011;72498;42.022;21.444;2024-01-07T03:26:22;25.00;;;13.85;;
82760;SDS011;72498;42.022;21.444;2024-01-07T03:28:48;23.08;;;14.55;;
82760;SDS011;72498;42.022;21.444;2024-01-07T03:31:15;22.05;;;13.43;;
82760;SDS011;72498;42.022;21.444;2024-01-07T03:33:41;28.63;;;14.38;;
82760;SDS011;72498;42.022;21.444;2024-01-07T03:36:12;16.25;;;9.45;;
82760;SDS011;72498;42.022;21.444;2024-01-07T03:38:39;13.80;;;7.70;;
82760;SDS011;72498;42.022;21.444;2024-01-07T03:41:05;20.33;;;9.45;;
82760;SDS011;72498;42.022;21.444;2024-01-07T03:43:32;19.00;;;10.02;;
82760;SDS011;72498;42.022;21.444;2024-01-07T03:45:58;18.27;;;9.80;;
82760;SDS011;72498;42.022;21.444;2024-01-07T03:48:25;17.63;;;10.68;;
82760;SDS011;72498;42.022;21.444;2024-01-07T03:50:51;18.75;;;9.95;;
82760;SDS011;72498;42.022;21.444;2024-01-07T03:53:18;18.23;;;9.68;;
82760;SDS011;72498;42.022;21.444;2024-01-07T03:55:44;15.65;;;9.57;;
82760;SDS011;72498;42.022;21.444;2024-01-07T03:58:11;20.00;;;10.20;;
82760;SDS011;72498;42.022;21.444;2024-01-07T04:00:37;15.20;;;8.43;;
82760;SDS011;72498;42.022;21.444;2024-01-07T04:03:03;18.67;;;8.57;;
82760;SDS011;72498;42.022;21.444;2024-01-07T04:05:29;19.52;;;9.80;;
82760;SDS011;72498;42.022;21.444;2024-01-07T04:07:56;16.75;;;9.70;;
82760;SDS011;72498;42.022;21.444;2024-01-07T04:10:22;19.17;;;10.43;;
82760;SDS011;72498;42.022;21.444;2024-01-07T04:12:48;17.02;;;9.23;;
82760;SDS011;72498;42.022;21.444;2024-01-07T04:15:14;17.85;;;10.15;;
82760;SDS011;72498;42.022;21.444;2024-01-07T04:17:40;15.75;;;9.07;;
82760;SDS011;72498;42.022;21.444;2024-01-07T04:20:07;17.00;;;9.57;;
82760;SDS011;72498;42.022;21.444;2024-01-07T04:22:34;18.05;;;10.15;;
82760;SDS011;72498;42.022;21.444;2024-01-07T04:25:00;85.82;;;30.10;;
82760;SDS011;72498;42.022;21.444;2024-01-07T04:27:26;42.05;;;18.90;;
82760;SDS011;72498;42.022;21.444;2024-01-07T04:29:55;35.55;;;16.67;;
82760;SDS011;72498;42.022;21.444;2024-01-07T04:32:21;46.70;;;19.20;;
82760;SDS011;72498;42.022;21.444;2024-01-07T04:34:47;43.95;;;18.98;;
82760;SDS011;72498;42.022;21.444;2024-01-07T04:37:13;36.65;;;17.30;;
82760;SDS011;72498;42.022;21.444;2024-01-07T04:39:40;43.13;;;19.40;;
82760;SDS011;72498;42.022;21.444;2024-01-07T04:42:06;37.08;;;17.42;;
82760;SDS011;72498;42.022;21.444;2024-01-07T04:44:32;28.38;;;15.35;;
82760;SDS011;72498;42.022;21.444;2024-01-07T04:46:58;27.45;;;14.85;;
82760;SDS011;72498;42.022;21.444;2024-01-07T04:49:24;25.05;;;15.15;;
82760;SDS011;72498;42.022;21.444;2024-01-07T04:51:51;31.70;;;15.57;;
82760;SDS011;72498;42.022;21.444;2024-01-07T04:54:17;27.52;;;14.80;;
82760;SDS011;72498;42.022;21.444;2024-01-07T04:56:44;29.23;;;16.30;;
82760;SDS011;72498;42.022;21.444;2024-01-07T04:59:10;37.05;;;19.75;;
82760;SDS011;72498;42.022;21.444;2024-01-07T05:01:37;46.20;;;23.90;;
82760;SDS011;72498;42.022;21.444;2024-01-07T05:04:03;46.00;;;20.23;;
82760;SDS011;72498;42.022;21.444;2024-01-07T05:06:29;34.35;;;19.75;;
82760;SDS011;72498;42.022;21.444;2024-01-07T05:08:55;31.58;;;17.83;;
82760;SDS011;72498;42.022;21.444;2024-01-07T05:11:21;30.35;;;17.88;;
82760;SDS011;72498;42.022;21.444;2024-01-07T05:13:48;33.53;;;19.23;;
82760;SDS011;72498;42.022;21.444;2024-01-07T05:16:20;39.70;;;20.85;;
82760;SDS011;72498;42.022;21.444;2024-01-07T05:18:46;41.15;;;20.25;;
82760;SDS011;72498;42.022;21.444;2024-01-07T05:21:19;36.88;;;19.52;;
82760;SDS011;72498;42.022;21.444;2024-01-07T05:23:46;42.65;;;23.90;;
82760;SDS011;72498;42.022;21.444;2024-01-07T05:26:12;34.05;;;20.42;;
82760;SDS011;72498;42.022;21.444;2024-01-07T05:28:38;34.53;;;20.50;;
82760;SDS011;72498;42.022;21.444;2024-01-07T05:31:04;39.33;;;20.98;;
82760;SDS011;72498;42.022;21.444;2024-01-07T05:33:30;48.42;;;26.40;;
82760;SDS011;72498;42.022;21.444;2024-01-07T05:35:56;43.45;;;23.33;;
82760;SDS011;72498;42.022;21.444;2024-01-07T05:38:23;41.70;;;24.48;;
82760;SDS011;72498;42.022;21.444;2024-01-07T05:40:49;33.35;;;20.83;;
82760;SDS011;72498;42.022;21.444;2024-01-07T05:43:15;37.15;;;20.30;;
82760;SDS011;72498;42.022;21.444;2024-01-07T05:45:41;37.17;;;18.42;;
82760;SDS011;72498;42.022;21.444;2024-01-07T05:48:07;31.98;;;18.63;;
82760;SDS011;72498;42.022;21.444;2024-01-07T05:50:36;33.70;;;19.80;;
82760;SDS011;72498;42.022;21.444;2024-01-07T05:53:02;29.70;;;18.38;;
82760;SDS011;72498;42.022;21.444;2024-01-07T05:55:29;30.73;;;18.80;;
82760;SDS011;72498;42.022;21.444;2024-01-07T05:57:56;31.80;;;18.80;;
82760;SDS011;72498;42.022;21.444;2024-01-07T06:00:23;32.70;;;20.10;;
82760;SDS011;72498;42.022;21.444;2024-01-07T06:02:49;33.65;;;19.45;;
82760;SDS011;72498;42.022;21.444;2024-01-07T06:05:15;30.80;;;17.88;;
82760;SDS011;72498;42.022;21.444;2024-01-07T06:07:41;23.92;;;14.15;;
82760;SDS011;72498;42.022;21.444;2024-01-07T06:10:07;17.50;;;8.13;;
82760;SDS011;72498;42.022;21.444;2024-01-07T06:12:34;16.13;;;9.57;;
82760;SDS011;72498;42.022;21.444;2024-01-07T06:15:00;21.77;;;12.25;;
82760;SDS011;72498;42.022;21.444;2024-01-07T06:17:26;20.80;;;11.95;;
82760;SDS011;72498;42.022;21.444;2024-01-07T06:19:52;30.15;;;18.20;;
82760;SDS011;72498;42.022;21.444;2024-01-07T06:22:18;24.33;;;14.45;;
82760;SDS011;72498;42.022;21.444;2024-01-07T06:24:44;24.20;;;14.48;;
82760;SDS011;72498;42.022;21.444;2024-01-07T06:27:11;22.50;;;11.88;;
82760;SDS011;72498;42.022;21.444;2024-01-07T06:29:39;21.77;;;11.77;;
82760;SDS011;72498;42.022;21.444;2024-01-07T06:32:05;21.75;;;11.18;;
82760;SDS011;72498;42.022;21.444;2024-01-07T06:34:31;19.73;;;10.77;;
82760;SDS011;72498;42.022;21.444;2024-01-07T06:36:58;23.45;;;14.00;;
82760;SDS011;72498;42.022;21.444;2024-01-07T06:39:24;22.83;;;12.07;;
82760;SDS011;72498;42.022;21.444;2024-01-07T06:41:52;21.13;;;11.93;;
82760;SDS011;72498;42.022;21.444;2024-01-07T06:44:18;21.33;;;12.40;;
82760;SDS011;72498;42.022;21.444;2024-01-07T06:46:46;21.73;;;12.52;;
82760;SDS011;72498;42.022;21.444;2024-01-07T06:49:13;19.17;;;11.40;;
82760;SDS011;72498;42.022;21.444;2024-01-07T06:51:40;23.45;;;14.02;;
82760;SDS011;72498;42.022;21.444;2024-01-07T06:54:06;24.00;;;13.52;;
82760;SDS011;72498;42.022;21.444;2024-01-07T06:56:33;22.77;;;13.43;;
82760;SDS011;72498;42.022;21.444;2024-01-07T06:59:01;20.75;;;12.25;;
82760;SDS011;72498;42.022;21.444;2024-01-07T07:01:29;19.52;;;11.98;;
82760;SDS011;72498;42.022;21.444;2024-01-07T07:03:55;21.55;;;12.45;;
82760;SDS011;72498;42.022;21.444;2024-01-07T07:06:24;23.98;;;15.10;;
82760;SDS011;72498;42.022;21.444;2024-01-07T07:08:50;20.52;;;12.05;;
82760;SDS011;72498;42.022;21.444;2024-01-07T07:11:18;20.23;;;11.43;;
82760;SDS011;72498;42.022;21.444;2024-01-07T07:13:44;20.52;;;12.05;;
82760;SDS011;72498;42.022;21.444;2024-01-07T07:16:11;23.17;;;12.15;;
82760;SDS011;72498;42.022;21.444;2024-01-07T07:18:37;19.20;;;11.50;;
82760;SDS011;72498;42.022;21.444;2024-01-07T07:21:03;22.88;;;13.38;;
82760;SDS011;72498;42.022;21.444;2024-01-07T07:23:29;21.50;;;13.02;;
82760;SDS011;72498;42.022;21.444;2024-01-07T07:25:56;28.50;;;15.05;;
82760;SDS011;72498;42.022;21.444;2024-01-07T07:28:23;23.40;;;13.02;;
82760;SDS011;72498;42.022;21.444;2024-01-07T07:30:49;20.35;;;11.38;;
82760;SDS011;72498;42.022;21.444;2024-01-07T07:33:15;21.25;;;13.57;;
82760;SDS011;72498;42.022;21.444;2024-01-07T07:35:42;21.83;;;13.05;;
82760;SDS011;72498;42.022;21.444;2024-01-07T07:38:08;24.10;;;12.32;;
82760;SDS011;72498;42.022;21.444;2024-01-07T07:40:35;20.27;;;11.18;;
82760;SDS011;72498;42.022;21.444;2024-01-07T07:43:02;18.83;;;9.38;;
82760;SDS011;72498;42.022;21.444;2024-01-07T07:45:29;21.88;;;13.23;;
82760;SDS011;72498;42.022;21.444;2024-01-07T07:47:55;20.05;;;11.85;;
82760;SDS011;72498;42.022;21.444;2024-01-07T07:50:24;16.75;;;9.60;;
82760;SDS011;72498;42.022;21.444;2024-01-07T07:52:50;15.38;;;8.38;;
82760;SDS011;72498;42.022;21.444;2024-01-07T07:55:16;17.85;;;8.07;;
82760;SDS011;72498;42.022;21.444;2024-01-07T07:57:44;16.10;;;9.02;;
82760;SDS011;72498;42.022;21.444;2024-01-07T08:00:11;19.15;;;9.45;;
82760;SDS011;72498;42.022;21.444;2024-01-07T08:02:39;20.15;;;12.27;;
82760;SDS011;72498;42.022;21.444;2024-01-07T08:05:09;23.48;;;14.52;;
82760;SDS011;72498;42.022;21.444;2024-01-07T08:07:39;25.45;;;17.20;;
82760;SDS011;72498;42.022;21.444;2024-01-07T08:10:06;27.08;;;17.38;;
82760;SDS011;72498;42.022;21.444;2024-01-07T08:12:35;23.48;;;13.75;;
82760;SDS011;72498;42.022;21.444;2024-01-07T08:15:05;28.00;;;16.55;;
82760;SDS011;72498;42.022;21.444;2024-01-07T08:17:33;26.27;;;16.52;;
82760;SDS011;72498;42.022;21.444;2024-01-07T08:20:01;24.38;;;15.55;;
82760;SDS011;72498;42.022;21.444;2024-01-07T08:22:28;24.75;;;15.45;;
82760;SDS011;72498;42.022;21.444;2024-01-07T08:24:56;25.88;;;16.15;;
82760;SDS011;72498;42.022;21.444;2024-01-07T08:27:23;21.35;;;11.20;;
82760;SDS011;72498;42.022;21.444;2024-01-07T08:29:51;16.23;;;8.32;;
82760;SDS011;72498;42.022;21.444;2024-01-07T08:32:23;15.30;;;10.10;;
82760;SDS011;72498;42.022;21.444;2024-01-07T08:34:54;16.65;;;10.23;;
82760;SDS011;72498;42.022;21.444;2024-01-07T08:37:22;19.20;;;10.73;;
82760;SDS011;72498;42.022;21.444;2024-01-07T08:39:51;19.67;;;12.68;;
82760;SDS011;72498;42.022;21.444;2024-01-07T08:42:17;20.85;;;13.05;;
82760;SDS011;72498;42.022;21.444;2024-01-07T08:44:47;22.17;;;13.50;;
82760;SDS011;72498;42.022;21.444;2024-01-07T08:47:22;22.23;;;14.65;;
82760;SDS011;72498;42.022;21.444;2024-01-07T08:49:48;22.52;;;15.40;;
82760;SDS011;72498;42.022;21.444;2024-01-07T08:52:14;30.33;;;17.85;;
82760;SDS011;72498;42.022;21.444;2024-01-07T08:54:41;28.92;;;18.05;;
82760;SDS011;72498;42.022;21.444;2024-01-07T08:57:40;26.23;;;17.67;;
82760;SDS011;72498;42.022;21.444;2024-01-07T09:00:06;24.63;;;17.10;;
82760;SDS011;72498;42.022;21.444;2024-01-07T09:02:37;28.85;;;17.98;;
82760;SDS011;72498;42.022;21.444;2024-01-07T09:05:05;29.05;;;17.17;;
82760;SDS011;72498;42.022;21.444;2024-01-07T09:07:37;28.35;;;18.77;;
82760;SDS011;72498;42.022;21.444;2024-01-07T09:10:03;33.90;;;20.67;;
82760;SDS011;72498;42.022;21.444;2024-01-07T09:12:33;29.65;;;17.25;;
82760;SDS011;72498;42.022;21.444;2024-01-07T09:15:00;25.60;;;16.95;;
82760;SDS011;72498;42.022;21.444;2024-01-07T09:17:26;24.67;;;16.48;;
82760;SDS011;72498;42.022;21.444;2024-01-07T09:19:52;23.10;;;15.10;;
82760;SDS011;72498;42.022;21.444;2024-01-07T09:22:19;31.58;;;16.27;;
82760;SDS011;72498;42.022;21.444;2024-01-07T09:24:48;21.98;;;14.35;;
82760;SDS011;72498;42.022;21.444;2024-01-07T09:27:15;21.90;;;13.07;;
82760;SDS011;72498;42.022;21.444;2024-01-07T09:29:41;10.98;;;6.85;;
82760;SDS011;72498;42.022;21.444;2024-01-07T09:32:08;17.00;;;10.55;;
82760;SDS011;72498;42.022;21.444;2024-01-07T09:34:38;16.02;;;9.75;;
82760;SDS011;72498;42.022;21.444;2024-01-07T09:37:16;19.45;;;12.55;;
82760;SDS011;72498;42.022;21.444;2024-01-07T09:39:51;20.90;;;13.15;;
82760;SDS011;72498;42.022;21.444;2024-01-07T09:42:23;19.95;;;12.55;;
82760;SDS011;72498;42.022;21.444;2024-01-07T09:44:55;18.40;;;11.70;;
82760;SDS011;72498;42.022;21.444;2024-01-07T09:47:21;15.98;;;9.07;;
82760;SDS011;72498;42.022;21.444;2024-01-07T09:49:54;18.60;;;10.27;;
82760;SDS011;72498;42.022;21.444;2024-01-07T09:52:28;16.38;;;10.27;;
82760;SDS011;72498;42.022;21.444;2024-01-07T09:55:00;16.67;;;10.15;;
82760;SDS011;72498;42.022;21.444;2024-01-07T09:57:31;17.38;;;10.80;;
82760;SDS011;72498;42.022;21.444;2024-01-07T10:00:00;15.18;;;8.63;;
82760;SDS011;72498;42.022;21.444;2024-01-07T10:02:30;12.32;;;7.93;;
82760;SDS011;72498;42.022;21.444;2024-01-07T10:04:56;13.43;;;8.13;;
82760;SDS011;72498;42.022;21.444;2024-01-07T10:07:22;14.30;;;8.10;;
82760;SDS011;72498;42.022;21.444;2024-01-07T10:09:50;13.90;;;8.18;;
82760;SDS011;72498;42.022;21.444;2024-01-07T10:12:22;13.40;;;8.45;;
82760;SDS011;72498;42.022;21.444;2024-01-07T10:14:56;15.30;;;8.75;;
82760;SDS011;72498;42.022;21.444;2024-01-07T10:17:22;13.68;;;8.65;;
82760;SDS011;72498;42.022;21.444;2024-01-07T10:19:53;14.90;;;9.05;;
82760;SDS011;72498;42.022;21.444;2024-01-07T10:22:25;14.32;;;8.63;;
82760;SDS011;72498;42.022;21.444;2024-01-07T10:25:06;16.42;;;8.52;;
82760;SDS011;72498;42.022;21.444;2024-01-07T10:27:35;15.30;;;8.68;;
82760;SDS011;72498;42.022;21.444;2024-01-07T10:30:03;16.83;;;9.07;;
82760;SDS011;72498;42.022;21.444;2024-01-07T10:32:38;18.58;;;8.27;;
82760;SDS011;72498;42.022;21.444;2024-01-07T10:35:07;14.45;;;8.80;;
82760;SDS011;72498;42.022;21.444;2024-01-07T10:37:54;18.35;;;9.75;;
82760;SDS011;72498;42.022;21.444;2024-01-07T10:40:26;18.98;;;9.57;;
82760;SDS011;72498;42.022;21.444;2024-01-07T10:42:55;15.82;;;9.35;;
82760;SDS011;72498;42.022;21.444;2024-01-07T10:45:22;15.43;;;9.70;;
82760;SDS011;72498;42.022;21.444;2024-01-07T10:47:58;14.68;;;9.43;;
82760;SDS011;72498;42.022;21.444;2024-01-07T10:50:30;16.52;;;9.55;;
82760;SDS011;72498;42.022;21.444;2024-01-07T10:53:03;15.02;;;8.40;;
82760;SDS011;72498;42.022;21.444;2024-01-07T10:55:34;16.65;;;9.05;;
82760;SDS011;72498;42.022;21.444;2024-01-07T10:58:11;15.75;;;9.80;;
82760;SDS011;72498;42.022;21.444;2024-01-07T11:00:42;15.70;;;8.63;;
82760;SDS011;72498;42.022;21.444;2024-01-07T11:03:51;16.02;;;8.45;;
82760;SDS011;72498;42.022;21.444;2024-01-07T11:06:43;13.40;;;7.85;;
82760;SDS011;72498;42.022;21.444;2024-01-07T11:09:51;12.63;;;7.70;;
82760;SDS011;72498;42.022;21.444;2024-01-07T11:11:49;10.70;;;5.82;;
82760;SDS011;72498;42.022;21.444;2024-01-07T11:20:06;13.05;;;7.60;;
82760;SDS011;72498;42.022;21.444;2024-01-07T11:23:05;15.70;;;8.32;;
82760;SDS011;72498;42.022;21.444;2024-01-07T12:21:10;21.55;;;14.32;;
82760;SDS011;72498;42.022;21.444;2024-01-07T12:23:37;23.98;;;14.82;;
82760;SDS011;72498;42.022;21.444;2024-01-07T12:33:53;21.92;;;16.73;;
82760;SDS011;72498;42.022;21.444;2024-01-07T12:36:29;23.40;;;15.98;;
82760;SDS011;72498;42.022;21.444;2024-01-07T12:39:19;25.52;;;16.13;;
82760;SDS011;72498;42.022;21.444;2024-01-07T12:41:50;24.17;;;15.48;;
82760;SDS011;72498;42.022;21.444;2024-01-07T12:44:19;19.08;;;12.77;;
82760;SDS011;72498;42.022;21.444;2024-01-07T12:46:54;19.13;;;12.63;;
82760;SDS011;72498;42.022;21.444;2024-01-07T12:49:48;16.10;;;10.23;;
82760;SDS011;72498;42.022;21.444;2024-01-07T12:52:26;17.40;;;11.00;;
82760;SDS011;72498;42.022;21.444;2024-01-07T12:54:53;18.58;;;12.50;;
82760;SDS011;72498;42.022;21.444;2024-01-07T12:57:23;21.95;;;13.90;;
82760;SDS011;72498;42.022;21.444;2024-01-07T12:59:49;22.75;;;14.98;;
82760;SDS011;72498;42.022;21.444;2024-01-07T13:02:16;14.68;;;8.57;;
82760;SDS011;72498;42.022;21.444;2024-01-07T13:04:43;13.15;;;7.90;;
82760;SDS011;72498;42.022;21.444;2024-01-07T13:07:09;14.77;;;8.23;;
82760;SDS011;72498;42.022;21.444;2024-01-07T13:09:38;14.93;;;8.25;;
82760;SDS011;72498;42.022;21.444;2024-01-07T13:12:11;14.02;;;8.20;;
82760;SDS011;72498;42.022;21.444;2024-01-07T13:14:38;12.30;;;7.55;;
82760;SDS011;72498;42.022;21.444;2024-01-07T13:17:10;14.13;;;7.35;;
82760;SDS011;72498;42.022;21.444;2024-01-07T13:19:46;14.77;;;7.82;;
82760;SDS011;72498;42.022;21.444;2024-01-07T13:22:15;14.45;;;9.02;;
82760;SDS011;72498;42.022;21.444;2024-01-07T13:24:42;16.92;;;9.25;;
82760;SDS011;72498;42.022;21.444;2024-01-07T13:32:42;15.10;;;8.80;;
82760;SDS011;72498;42.022;21.444;2024-01-07T13:35:09;13.15;;;8.32;;
82760;SDS011;72498;42.022;21.444;2024-01-07T13:37:42;15.57;;;9.20;;
82760;SDS011;72498;42.022;21.444;2024-01-07T13:40:08;17.33;;;9.05;;
82760;SDS011;72498;42.022;21.444;2024-01-07T13:42:46;16.27;;;10.02;;
82760;SDS011;72498;42.022;21.444;2024-01-07T13:45:19;15.50;;;9.73;;
82760;SDS011;72498;42.022;21.444;2024-01-07T13:47:53;18.77;;;10.68;;
82760;SDS011;72498;42.022;21.444;2024-01-07T13:50:19;16.63;;;10.60;;
82760;SDS011;72498;42.022;21.444;2024-01-07T13:52:54;19.55;;;11.48;;
82760;SDS011;72498;42.022;21.444;2024-01-07T13:55:24;16.63;;;10.32;;
82760;SDS011;72498;42.022;21.444;2024-01-07T13:58:07;16.67;;;9.95;;
82760;SDS011;72498;42.022;21.444;2024-01-07T14:00:40;17.95;;;9.63;;
82760;SDS011;72498;42.022;21.444;2024-01-07T14:03:09;16.10;;;9.73;;
82760;SDS011;72498;42.022;21.444;2024-01-07T14:05:41;19.08;;;10.63;;
82760;SDS011;72498;42.022;21.444;2024-01-07T14:34:21;25.48;;;15.02;;
82760;SDS011;72498;42.022;21.444;2024-01-07T14:36:56;27.75;;;14.88;;
82760;SDS011;72498;42.022;21.444;2024-01-07T14:42:33;28.70;;;15.82;;
82760;SDS011;72498;42.022;21.444;2024-01-07T14:45:18;36.20;;;17.75;;
82760;SDS011;72498;42.022;21.444;2024-01-07T15:31:53;66.55;;;37.45;;
82760;SDS011;72498;42.022;21.444;2024-01-07T15:34:22;58.88;;;32.22;;
82760;SDS011;72498;42.022;21.444;2024-01-07T15:37:04;51.28;;;30.40;;
82760;SDS011;72498;42.022;21.444;2024-01-07T15:39:49;63.33;;;35.90;;
82760;SDS011;72498;42.022;21.444;2024-01-07T15:42:19;63.78;;;34.47;;
82760;SDS011;72498;42.022;21.444;2024-01-07T15:44:50;54.40;;;30.95;;
82760;SDS011;72498;42.022;21.444;2024-01-07T15:47:17;60.70;;;34.17;;
82760;SDS011;72498;42.022;21.444;2024-01-07T15:49:47;60.45;;;33.08;;
82760;SDS011;72498;42.022;21.444;2024-01-07T15:57:26;51.28;;;30.52;;
82760;SDS011;72498;42.022;21.444;2024-01-07T15:59:55;45.60;;;28.88;;
82760;SDS011;72498;42.022;21.444;2024-01-07T16:02:24;57.80;;;32.15;;
82760;SDS011;72498;42.022;21.444;2024-01-07T16:04:53;51.35;;;32.20;;
82760;SDS011;72498;42.022;21.444;2024-01-07T16:07:24;59.92;;;35.42;;
82760;SDS011;72498;42.022;21.444;2024-01-07T16:09:52;60.83;;;34.50;;
82760;SDS011;72498;42.022;21.444;2024-01-07T16:12:20;53.20;;;32.08;;
82760;SDS011;72498;42.022;21.444;2024-01-07T16:14:47;65.63;;;37.42;;
82760;SDS011;72498;42.022;21.444;2024-01-07T16:17:14;66.15;;;39.78;;
82760;SDS011;72498;42.022;21.444;2024-01-07T16:19:44;77.72;;;46.55;;
82760;SDS011;72498;42.022;21.444;2024-01-07T16:22:18;79.38;;;43.00;;
82760;SDS011;72498;42.022;21.444;2024-01-07T16:24:46;91.45;;;47.63;;
82760;SDS011;72498;42.022;21.444;2024-01-07T16:27:33;95.35;;;49.28;;
82760;SDS011;72498;42.022;21.444;2024-01-07T16:29:59;80.45;;;44.53;;
82760;SDS011;72498;42.022;21.444;2024-01-07T16:32:27;78.63;;;41.70;;
82760;SDS011;72498;42.022;21.444;2024-01-07T16:34:54;82.78;;;45.50;;
82760;SDS011;72498;42.022;21.444;2024-01-07T16:37:23;66.03;;;36.33;;
82760;SDS011;72498;42.022;21.444;2024-01-07T16:39:50;58.78;;;35.25;;
82760;SDS011;72498;42.022;21.444;2024-01-07T16:42:49;55.97;;;30.98;;
82760;SDS011;72498;42.022;21.444;2024-01-07T16:45:37;49.88;;;28.75;;
82760;SDS011;72498;42.022;21.444;2024-01-07T16:48:12;59.83;;;32.97;;
82760;SDS011;72498;42.022;21.444;2024-01-07T16:50:39;60.90;;;33.65;;
82760;SDS011;72498;42.022;21.444;2024-01-07T16:53:28;59.70;;;33.15;;
82760;SDS011;72498;42.022;21.444;2024-01-07T16:55:58;57.30;;;32.15;;
82760;SDS011;72498;42.022;21.444;2024-01-07T16:58:56;64.85;;;36.70;;
82760;SDS011;72498;42.022;21.444;2024-01-07T17:01:23;63.75;;;34.25;;
82760;SDS011;72498;42.022;21.444;2024-01-07T17:03:53;63.88;;;36.75;;
82760;SDS011;72498;42.022;21.444;2024-01-07T17:06:26;63.72;;;38.40;;